createdAt,value
2019-01-26T00:01:13.350Z,97716.03
2019-01-26T00:03:40.139Z,97720.38
2019-01-26T00:06:07.557Z,97718.67
2019-01-26T00:08:34.137Z,97720.47
2019-01-26T00:11:02.345Z,97717.94
2019-01-26T00:13:29.127Z,97714.50
2019-01-26T00:15:55.651Z,97721.81
2019-01-26T00:18:22.320Z,97727.83
2019-01-26T00:20:49.363Z,97721.37
2019-01-26T00:23:16.958Z,97721.39
2019-01-26T00:25:43.438Z,97699.02
2019-01-26T00:28:10.289Z,97699.03
2019-01-26T00:30:36.948Z,97690.86
2019-01-26T00:33:03.870Z,97689.17
2019-01-26T00:35:30.517Z,97681.88
2019-01-26T00:37:58.454Z,97674.13
2019-01-26T00:40:25.137Z,97668.53
2019-01-26T00:42:52.973Z,97661.27
2019-01-26T00:45:19.532Z,97653.09
2019-01-26T00:47:46.429Z,97643.67
2019-01-26T00:50:13.458Z,97641.53
2019-01-26T00:52:39.983Z,97635.94
2019-01-26T00:55:06.747Z,97632.49
2019-01-26T00:57:33.359Z,97630.77
2019-01-26T01:00:00.381Z,97643.25
2019-01-26T01:02:27.636Z,97630.37
2019-01-26T01:04:54.617Z,97611.45
2019-01-26T01:07:21.432Z,97609.30
2019-01-26T01:09:48.566Z,97607.58
2019-01-26T01:12:17.444Z,97620.91
2019-01-26T01:14:44.119Z,97617.05
2019-01-26T01:17:10.746Z,97611.45
2019-01-26T01:19:37.398Z,97616.61
2019-01-26T01:22:04.083Z,97626.94
2019-01-26T01:24:30.644Z,97626.08
2019-01-26T01:26:59.829Z,97620.88
2019-01-26T01:29:26.709Z,97619.19
2019-01-26T01:31:53.202Z,97613.59
2019-01-26T01:34:19.758Z,97613.56
2019-01-26T01:36:46.343Z,97609.69
2019-01-26T01:39:12.946Z,97607.53
2019-01-26T01:41:39.536Z,97608.36
2019-01-26T01:44:06.680Z,97610.94
2019-01-26T01:46:33.219Z,97607.06
2019-01-26T01:48:59.853Z,97606.63
2019-01-26T01:51:26.794Z,97601.00
2019-01-26T01:53:53.720Z,97591.53
2019-01-26T01:56:20.385Z,97579.53
2019-01-26T01:58:46.905Z,97570.50
2019-01-26T02:01:13.789Z,97580.36
2019-01-26T02:03:40.459Z,97580.36
2019-01-26T02:06:07.143Z,97573.08
2019-01-26T02:08:33.682Z,97571.79
2019-01-26T02:11:00.315Z,97574.80
2019-01-26T02:13:26.838Z,97572.65
2019-01-26T02:15:53.625Z,97565.77
2019-01-26T02:18:20.696Z,97557.20
2019-01-26T02:20:47.212Z,97558.92
2019-01-26T02:23:14.071Z,97553.36
2019-01-26T02:25:40.621Z,97549.48
2019-01-26T02:28:07.702Z,97555.97
2019-01-26T02:30:34.352Z,97552.13
2019-01-26T02:33:01.266Z,97549.54
2019-01-26T02:35:27.912Z,97549.97
2019-01-26T02:37:54.598Z,97546.95
2019-01-26T02:40:21.199Z,97551.28
2019-01-26T02:42:48.251Z,97551.30
2019-01-26T02:45:16.334Z,97548.72
2019-01-26T02:47:43.093Z,97542.26
2019-01-26T02:50:12.224Z,97537.11
2019-01-26T02:52:41.324Z,97536.25
2019-01-26T02:55:08.059Z,97529.38
2019-01-26T02:57:35.131Z,97535.41
2019-01-26T03:00:01.725Z,97536.27
2019-01-26T03:02:28.450Z,97540.58
2019-01-26T03:04:54.918Z,97531.52
2019-01-26T03:07:21.898Z,97537.11
2019-01-26T03:09:48.543Z,97537.55
2019-01-26T03:12:15.504Z,97526.77
2019-01-26T03:14:41.987Z,97537.56
2019-01-26T03:17:08.670Z,97543.15
2019-01-26T03:19:35.172Z,97536.26
2019-01-26T03:22:01.686Z,97530.69
2019-01-26T03:24:28.244Z,97537.98
2019-01-26T03:26:54.747Z,97533.28
2019-01-26T03:29:21.652Z,97529.82
2019-01-26T03:31:48.515Z,97519.92
2019-01-26T03:34:15.351Z,97530.67
2019-01-26T03:36:41.842Z,97527.65
2019-01-26T03:39:08.511Z,97525.09
2019-01-26T03:41:34.982Z,97524.23
2019-01-26T03:44:01.915Z,97526.38
2019-01-26T03:46:28.389Z,97525.50
2019-01-26T03:48:55.265Z,97516.89
2019-01-26T03:51:21.776Z,97518.20
2019-01-26T03:53:48.509Z,97512.17
2019-01-26T03:56:15.165Z,97511.30
2019-01-26T03:58:41.738Z,97504.84
2019-01-26T04:01:08.275Z,97503.56
2019-01-26T04:03:35.358Z,97503.11
2019-01-26T04:06:01.910Z,97493.22
2019-01-26T04:08:28.582Z,97496.66
2019-01-26T04:10:55.042Z,97502.70
2019-01-26T04:13:21.605Z,97501.81
2019-01-26T04:15:48.138Z,97509.14
2019-01-26T04:18:15.132Z,97510.01
2019-01-26T04:20:41.743Z,97516.92
2019-01-26T04:23:08.387Z,97506.99
2019-01-26T04:25:34.866Z,97513.47
2019-01-26T04:28:01.521Z,97507.41
2019-01-26T04:30:28.103Z,97504.82
2019-01-26T04:32:54.614Z,97498.36
2019-01-26T04:35:21.369Z,97497.06
2019-01-26T04:37:48.375Z,97504.40
2019-01-26T04:40:16.040Z,97509.16
2019-01-26T04:42:42.951Z,97513.89
2019-01-26T04:45:12.252Z,97511.29
2019-01-26T04:47:38.859Z,97503.53
2019-01-26T04:50:08.859Z,97502.25
2019-01-26T04:52:35.750Z,97502.23
2019-01-26T04:55:02.599Z,97500.09
2019-01-26T04:57:29.055Z,97495.80
2019-01-26T04:59:55.566Z,97500.95
2019-01-26T05:02:22.159Z,97505.71
2019-01-26T05:04:48.717Z,97496.20
2019-01-26T05:07:15.165Z,97500.97
2019-01-26T05:09:43.924Z,97498.80
2019-01-26T05:12:10.574Z,97497.49
2019-01-26T05:14:37.416Z,97492.77
2019-01-26T05:17:04.071Z,97491.91
2019-01-26T05:19:30.557Z,97489.30
2019-01-26T05:21:57.069Z,97478.10
2019-01-26T05:24:23.973Z,97484.55
2019-01-26T05:26:50.509Z,97487.14
2019-01-26T05:29:17.262Z,97490.60
2019-01-26T05:31:43.713Z,97496.61
2019-01-26T05:34:10.215Z,97488.42
2019-01-26T05:36:36.709Z,97486.27
2019-01-26T05:39:06.387Z,97490.58
2019-01-26T05:41:32.963Z,97496.62
2019-01-26T05:43:59.425Z,97487.55
2019-01-26T05:46:26.595Z,97481.94
2019-01-26T05:48:53.343Z,97475.89
2019-01-26T05:51:20.163Z,97481.52
2019-01-26T05:53:46.691Z,97475.88
2019-01-26T05:56:13.240Z,97481.48
2019-01-26T05:58:39.721Z,97471.99
2019-01-26T06:01:06.355Z,97479.33
2019-01-26T06:03:32.833Z,97472.44
2019-01-26T06:05:59.401Z,97473.71
2019-01-26T06:08:25.872Z,97464.22
2019-01-26T06:10:52.674Z,97472.00
2019-01-26T06:13:19.149Z,97475.44
2019-01-26T06:15:45.833Z,97482.34
2019-01-26T06:18:13.001Z,97489.66
2019-01-26T06:20:39.515Z,97489.20
2019-01-26T06:23:06.065Z,97485.77
2019-01-26T06:25:32.737Z,97476.27
2019-01-26T06:27:59.573Z,97473.68
2019-01-26T06:30:26.128Z,97464.19
2019-01-26T06:32:52.665Z,97464.64
2019-01-26T06:35:19.436Z,97468.95
2019-01-26T06:37:52.852Z,97472.36
2019-01-26T06:40:19.723Z,97467.19
2019-01-26T06:42:46.353Z,97463.30
2019-01-26T06:45:14.598Z,97459.88
2019-01-26T06:47:41.542Z,97465.47
2019-01-26T06:50:11.172Z,97457.24
2019-01-26T06:52:37.658Z,97463.30
2019-01-26T06:55:05.365Z,97461.95
2019-01-26T06:57:31.943Z,97457.23
2019-01-26T06:59:58.514Z,97468.45
2019-01-26T07:02:24.983Z,97462.41
2019-01-26T07:04:56.825Z,97467.98
2019-01-26T07:07:30.298Z,97458.91
2019-01-26T07:09:56.820Z,97457.62
2019-01-26T07:12:23.309Z,97454.17
2019-01-26T07:14:50.130Z,97455.89
2019-01-26T07:17:16.622Z,97446.41
2019-01-26T07:19:43.167Z,97450.71
2019-01-26T07:22:09.826Z,97434.73
2019-01-26T07:24:36.329Z,97442.03
2019-01-26T07:27:03.395Z,97438.14
2019-01-26T07:29:29.923Z,97434.65
2019-01-26T07:31:56.696Z,97429.52
2019-01-26T07:34:23.327Z,97435.94
2019-01-26T07:36:49.826Z,97432.92
2019-01-26T07:39:16.338Z,97431.56
2019-01-26T07:41:43.107Z,97432.00
2019-01-26T07:44:09.689Z,97438.88
2019-01-26T07:46:36.536Z,97436.28
2019-01-26T07:49:03.659Z,97445.77
2019-01-26T07:51:30.186Z,97439.71
2019-01-26T07:53:56.773Z,97428.46
2019-01-26T07:56:24.034Z,97425.44
2019-01-26T07:58:50.776Z,97425.01
2019-01-26T08:01:17.334Z,97428.00
2019-01-26T08:03:43.850Z,97417.59
2019-01-26T08:06:10.297Z,97411.98
2019-01-26T08:08:37.035Z,97406.34
2019-01-26T08:11:03.955Z,97398.95
2019-01-26T08:13:31.070Z,97405.39
2019-01-26T08:15:57.815Z,97401.85
2019-01-26T08:18:24.503Z,97404.45
2019-01-26T08:20:51.297Z,97396.68
2019-01-26T08:23:18.175Z,97396.24
2019-01-26T08:25:44.711Z,97381.95
2019-01-26T08:28:11.697Z,97380.63
2019-01-26T08:30:43.453Z,97374.98
2019-01-26T08:33:10.059Z,97381.40
2019-01-26T08:35:36.697Z,97378.80
2019-01-26T08:38:03.592Z,97374.50
2019-01-26T08:40:30.164Z,97374.86
2019-01-26T08:42:56.776Z,97369.67
2019-01-26T08:45:24.041Z,97367.40
2019-01-26T08:47:50.731Z,97370.80
2019-01-26T08:50:24.641Z,97363.36
2019-01-26T08:52:51.334Z,97370.67
2019-01-26T08:55:18.651Z,97361.02
2019-01-26T08:57:45.935Z,97362.34
2019-01-26T09:00:17.986Z,97361.41
2019-01-26T09:03:04.281Z,97360.12
2019-01-26T09:05:34.974Z,97365.27
2019-01-26T09:08:03.721Z,97371.28
2019-01-26T09:10:32.418Z,97367.86
2019-01-26T09:12:59.191Z,97357.06
2019-01-26T09:15:27.973Z,97353.95
2019-01-26T09:17:55.680Z,97357.27
2019-01-26T09:20:22.244Z,97358.50
2019-01-26T09:22:48.762Z,97349.91
2019-01-26T09:25:15.631Z,97345.91
2019-01-26T09:27:42.601Z,97339.34
2019-01-26T09:30:10.424Z,97336.69
2019-01-26T09:32:36.936Z,97340.07
2019-01-26T09:35:04.463Z,97334.44
2019-01-26T09:37:35.498Z,97337.50
2019-01-26T09:40:02.721Z,97341.81
2019-01-26T09:42:29.267Z,97341.45
2019-01-26T09:44:56.349Z,97334.02
2019-01-26T09:47:22.877Z,97340.05
2019-01-26T09:49:49.512Z,97342.59
2019-01-26T09:52:16.065Z,97347.27
2019-01-26T09:54:43.763Z,97342.56
2019-01-26T09:57:10.622Z,97343.45
2019-01-26T09:59:37.079Z,97345.98
2019-01-26T10:02:06.290Z,97338.59
2019-01-26T10:04:32.754Z,97347.63
2019-01-26T10:06:59.283Z,97351.41
2019-01-26T10:09:25.887Z,97362.61
2019-01-26T10:11:53.768Z,97361.67
2019-01-26T10:14:21.796Z,97372.06
2019-01-26T10:16:48.810Z,97367.42
2019-01-26T10:19:15.417Z,97386.92
2019-01-26T10:21:42.469Z,97378.66
2019-01-26T10:24:09.430Z,97378.72
2019-01-26T10:26:37.009Z,97376.12
2019-01-26T10:29:03.732Z,97374.82
2019-01-26T10:31:30.332Z,97365.20
2019-01-26T10:33:58.926Z,97360.87
2019-01-26T10:36:30.235Z,97359.06
2019-01-26T10:39:01.022Z,97348.63
2019-01-26T10:41:50.138Z,97356.77
2019-01-26T10:44:22.708Z,97348.56
2019-01-26T10:46:49.287Z,97352.81
2019-01-26T10:49:16.083Z,97342.36
2019-01-26T10:51:43.921Z,97335.00
2019-01-26T10:54:10.696Z,97340.17
2019-01-26T10:56:37.494Z,97332.25
2019-01-26T10:59:04.293Z,97343.10
2019-01-26T11:01:30.810Z,97337.45
2019-01-26T11:03:57.517Z,97338.70
2019-01-26T11:06:27.500Z,97338.25
2019-01-26T11:08:54.124Z,97336.95
2019-01-26T11:11:21.042Z,97335.59
2019-01-26T11:13:47.817Z,97332.93
2019-01-26T11:16:14.292Z,97330.27
2019-01-26T11:18:40.873Z,97329.79
2019-01-26T11:21:07.598Z,97325.45
2019-01-26T11:23:34.411Z,97328.84
2019-01-26T11:26:03.450Z,97324.91
2019-01-26T11:28:30.073Z,97324.49
2019-01-26T11:30:56.671Z,97319.33
2019-01-26T11:33:23.197Z,97318.81
2019-01-26T11:35:49.743Z,97325.22
2019-01-26T11:38:16.227Z,97314.27
2019-01-26T11:40:43.377Z,97318.14
2019-01-26T11:43:11.076Z,97310.27
2019-01-26T11:45:49.976Z,97309.82
2019-01-26T11:48:20.737Z,97311.09
2019-01-26T11:50:51.946Z,97318.86
2019-01-26T11:53:19.521Z,97318.48
2019-01-26T11:56:15.351Z,97311.53
2019-01-26T11:58:42.638Z,97308.86
2019-01-26T12:01:38.218Z,97303.69
2019-01-26T12:04:24.585Z,97305.84
2019-01-26T12:06:58.371Z,97310.20
2019-01-26T12:09:26.531Z,97306.70
2019-01-26T12:11:53.522Z,97302.94
2019-01-26T12:14:20.265Z,97302.91
2019-01-26T12:16:47.131Z,97301.09
2019-01-26T12:19:13.674Z,97295.96
2019-01-26T12:21:40.646Z,97299.04
2019-01-26T12:24:08.248Z,97299.55
2019-01-26T12:26:34.846Z,97297.39
2019-01-26T12:29:01.394Z,97288.33
2019-01-26T12:31:28.075Z,97295.17
2019-01-26T12:33:55.695Z,97295.69
2019-01-26T12:36:22.216Z,97294.35
2019-01-26T12:38:48.893Z,97293.05
2019-01-26T12:41:15.648Z,97291.41
2019-01-26T12:43:42.175Z,97294.80
2019-01-26T12:46:09.009Z,97301.23
2019-01-26T12:48:35.964Z,97296.98
2019-01-26T12:51:04.073Z,97297.91
2019-01-26T12:53:30.748Z,97300.92
2019-01-26T12:56:01.384Z,97300.52
2019-01-26T12:58:27.947Z,97301.50
2019-01-26T13:00:54.802Z,97297.19
2019-01-26T13:03:21.306Z,97300.55
2019-01-26T13:05:48.169Z,97294.48
2019-01-26T13:08:14.998Z,97297.47
2019-01-26T13:10:44.848Z,97289.22
2019-01-26T13:13:11.599Z,97287.95
2019-01-26T13:15:38.274Z,97286.23
2019-01-26T13:18:05.414Z,97281.00
2019-01-26T13:20:32.526Z,97286.14
2019-01-26T13:34:32.237Z,97289.52
2019-01-26T13:36:59.205Z,97296.95
2019-01-26T13:39:25.991Z,97297.77
2019-01-26T13:41:53.137Z,97295.66
2019-01-26T13:44:21.964Z,97296.92
2019-01-26T13:46:48.622Z,97295.55
2019-01-26T13:49:15.170Z,97293.46
2019-01-26T13:51:43.113Z,97298.62
2019-01-26T13:54:09.712Z,97298.70
2019-01-26T13:56:36.522Z,97290.86
2019-01-26T13:59:03.202Z,97286.03
2019-01-26T14:01:31.397Z,97292.53
2019-01-26T14:04:02.180Z,97287.33
2019-01-26T14:06:29.023Z,97294.66
2019-01-26T14:08:56.173Z,97297.33
2019-01-26T14:11:22.923Z,97291.20
2019-01-26T14:13:49.816Z,97301.64
2019-01-26T14:16:16.726Z,97299.92
2019-01-26T14:18:43.451Z,97298.97
2019-01-26T14:21:10.438Z,97299.38
2019-01-26T14:23:37.577Z,97305.41
2019-01-26T14:26:04.256Z,97303.80
2019-01-26T14:28:30.784Z,97305.98
2019-01-26T14:30:59.990Z,97300.38
2019-01-26T14:33:26.932Z,97295.69
2019-01-26T14:35:53.717Z,97303.87
2019-01-26T14:38:20.356Z,97305.13
2019-01-26T14:40:47.185Z,97294.28
2019-01-26T14:43:13.710Z,97292.53
2019-01-26T14:45:40.190Z,97291.09
2019-01-26T14:48:07.172Z,97295.78
2019-01-26T14:50:33.887Z,97287.45
2019-01-26T14:53:00.610Z,97290.47
2019-01-26T14:55:27.486Z,97282.11
2019-01-26T14:57:54.997Z,97281.26
2019-01-26T15:00:24.064Z,97288.09
2019-01-26T15:02:50.573Z,97291.97
2019-01-26T15:05:17.472Z,97285.38
2019-01-26T15:07:43.986Z,97279.28
2019-01-26T15:10:10.711Z,97284.45
2019-01-26T15:12:37.776Z,97277.57
2019-01-26T15:15:05.657Z,97280.10
2019-01-26T15:17:33.622Z,97277.87
2019-01-26T15:20:05.701Z,97281.41
2019-01-26T15:22:30.181Z,97277.09
2019-01-26T15:24:57.888Z,97266.56
2019-01-26T15:27:25.434Z,97271.77
2019-01-26T15:29:51.915Z,97275.30
2019-01-26T15:32:21.207Z,97274.00
2019-01-26T15:34:49.224Z,97285.34
2019-01-26T15:37:16.911Z,97279.73
2019-01-26T15:39:45.680Z,97271.19
2019-01-26T15:42:12.220Z,97271.70
2019-01-26T15:44:38.845Z,97277.80
2019-01-26T15:47:05.530Z,97269.59
2019-01-26T15:49:33.645Z,97273.56
2019-01-26T15:52:00.760Z,97266.98
2019-01-26T15:54:28.477Z,97270.48
2019-01-26T15:56:55.092Z,97270.06
2019-01-26T15:59:21.932Z,97273.97
2019-01-26T16:01:48.568Z,97270.92
2019-01-26T16:04:15.113Z,97271.85
2019-01-26T16:06:41.627Z,97269.25
2019-01-26T16:09:08.747Z,97262.74
2019-01-26T16:11:35.608Z,97265.34
2019-01-26T16:14:02.281Z,97263.67
2019-01-26T16:16:29.186Z,97271.14
2019-01-26T16:18:55.745Z,97267.23
2019-01-26T16:21:22.312Z,97271.10
2019-01-26T16:23:48.989Z,97262.33
2019-01-26T16:26:15.493Z,97268.84
2019-01-26T16:28:42.037Z,97264.08
2019-01-26T16:31:09.184Z,97269.73
2019-01-26T16:33:35.854Z,97258.88
2019-01-26T16:36:03.083Z,97259.77
2019-01-26T16:38:30.973Z,97263.30
2019-01-26T16:41:05.047Z,97254.64
2019-01-26T16:43:33.735Z,97259.02
2019-01-26T16:46:00.358Z,97255.08
2019-01-26T16:48:28.067Z,97257.83
2019-01-26T16:50:54.958Z,97247.80
2019-01-26T16:53:21.528Z,97240.81
2019-01-26T16:55:48.008Z,97242.52
2019-01-26T16:58:14.582Z,97234.76
2019-01-26T17:00:43.452Z,97234.39
2019-01-26T17:03:10.638Z,97230.07
2019-01-26T17:05:37.368Z,97228.44
2019-01-26T17:08:04.569Z,97223.61
2019-01-26T17:10:34.352Z,97229.22
2019-01-26T17:13:04.493Z,97226.21
2019-01-26T17:15:32.398Z,97226.62
2019-01-26T17:17:59.070Z,97227.51
2019-01-26T17:20:27.221Z,97225.32
2019-01-26T17:22:54.522Z,97220.94
2019-01-26T17:25:21.160Z,97213.05
2019-01-26T17:27:48.848Z,97217.29
2019-01-26T17:30:20.668Z,97224.31
2019-01-26T17:32:47.362Z,97210.38
2019-01-26T17:35:16.770Z,97206.03
2019-01-26T17:37:43.853Z,97200.41
2019-01-26T17:40:13.132Z,97194.32
2019-01-26T17:42:40.356Z,97186.89
2019-01-26T17:45:07.191Z,97195.98
2019-01-26T17:47:33.688Z,97197.14
2019-01-26T17:50:00.196Z,97192.91
2019-01-26T17:52:30.001Z,97192.98
2019-01-26T17:54:56.603Z,97193.14
2019-01-26T17:57:23.156Z,97197.94
2019-01-26T17:59:49.668Z,97190.94
2019-01-26T18:02:16.627Z,97193.02
2019-01-26T18:04:43.730Z,97184.33
2019-01-26T18:07:10.651Z,97185.58
2019-01-26T18:09:37.440Z,97186.96
2019-01-26T18:12:04.277Z,97185.14
2019-01-26T18:14:30.777Z,97174.41
2019-01-26T18:16:57.255Z,97178.79
2019-01-26T18:19:24.870Z,97176.79
2019-01-26T18:21:51.493Z,97182.44
2019-01-26T18:24:17.980Z,97180.84
2019-01-26T18:26:44.445Z,97172.59
2019-01-26T18:29:11.274Z,97189.02
2019-01-26T18:31:37.935Z,97181.22
2019-01-26T18:34:04.563Z,97173.60
2019-01-26T18:36:33.872Z,97173.72
2019-01-26T18:39:00.361Z,97174.20
2019-01-26T18:41:27.341Z,97174.20
2019-01-26T18:43:54.060Z,97172.89
2019-01-26T18:46:20.628Z,97168.81
2019-01-26T18:48:47.230Z,97158.33
2019-01-26T18:51:13.689Z,97154.44
2019-01-26T18:53:40.239Z,97161.01
2019-01-26T18:56:06.818Z,97148.38
2019-01-26T18:58:33.555Z,97148.08
2019-01-26T19:01:00.158Z,97143.63
2019-01-26T19:03:37.472Z,97135.08
2019-01-26T19:06:04.690Z,97137.27
2019-01-26T19:08:31.531Z,97134.27
2019-01-26T19:10:58.435Z,97128.62
2019-01-26T19:13:25.140Z,97131.77
2019-01-26T19:15:51.816Z,97127.55
2019-01-26T19:18:18.534Z,97124.98
2019-01-26T19:20:45.114Z,97127.10
2019-01-26T19:23:11.794Z,97128.47
2019-01-26T19:25:38.325Z,97124.76
2019-01-26T19:28:05.073Z,97121.38
2019-01-26T19:30:33.845Z,97108.91
2019-01-26T19:33:00.837Z,97114.17
2019-01-26T19:35:28.594Z,97119.52
2019-01-26T19:37:55.363Z,97118.25
2019-01-26T19:40:22.370Z,97110.94
2019-01-26T19:42:48.999Z,97105.74
2019-01-26T19:45:17.735Z,97109.57
2019-01-26T19:47:46.321Z,97108.75
2019-01-26T19:50:15.611Z,97099.25
2019-01-26T19:52:42.486Z,97095.13
2019-01-26T19:55:09.135Z,97091.33
2019-01-26T19:57:38.146Z,97091.16
2019-01-26T20:00:07.151Z,97087.80
2019-01-26T20:02:34.184Z,97085.82
2019-01-26T20:05:00.730Z,97084.21
2019-01-26T20:07:27.351Z,97080.66
2019-01-26T20:09:54.047Z,97073.86
2019-01-26T20:12:20.711Z,97069.20
2019-01-26T20:14:47.503Z,97067.88
2019-01-26T20:17:14.086Z,97069.68
2019-01-26T20:19:41.933Z,97070.53
2019-01-26T20:22:08.775Z,97057.28
2019-01-26T20:24:35.340Z,97055.44
2019-01-26T20:27:02.055Z,97059.43
2019-01-26T20:29:28.788Z,97046.08
2019-01-26T20:31:55.727Z,97048.64
2019-01-26T20:34:22.345Z,97039.78
2019-01-26T20:36:49.014Z,97038.13
2019-01-26T20:39:15.701Z,97033.38
2019-01-26T20:41:42.346Z,97027.25
2019-01-26T20:44:09.137Z,97029.81
2019-01-26T20:46:36.106Z,97027.22
2019-01-26T20:49:02.958Z,97022.81
2019-01-26T20:51:29.669Z,97020.22
2019-01-26T20:53:59.494Z,97005.64
2019-01-26T20:56:27.569Z,97008.67
2019-01-26T20:58:55.149Z,97012.53
2019-01-26T21:01:23.304Z,97010.73
2019-01-26T21:03:50.092Z,97001.17
2019-01-26T21:06:16.740Z,96996.88
2019-01-26T21:08:43.417Z,96989.16
2019-01-26T21:11:11.117Z,96992.70
2019-01-26T21:13:39.840Z,96983.17
2019-01-26T21:16:06.554Z,96981.98
2019-01-26T21:18:34.507Z,96975.39
2019-01-26T21:21:01.104Z,96980.27
2019-01-26T21:23:27.747Z,96976.03
2019-01-26T21:25:54.658Z,96963.82
2019-01-26T21:28:21.709Z,96962.14
2019-01-26T21:30:49.780Z,96960.41
2019-01-26T21:33:18.652Z,96954.46
2019-01-26T21:35:51.352Z,96955.66
2019-01-26T21:38:18.102Z,96955.36
2019-01-26T21:40:44.602Z,96959.38
2019-01-26T21:43:13.319Z,96949.78
2019-01-26T21:45:40.013Z,96957.34
2019-01-26T21:48:06.619Z,96938.14
2019-01-26T21:50:33.128Z,96947.63
2019-01-26T21:52:59.715Z,96946.34
2019-01-26T21:55:29.386Z,96937.09
2019-01-26T21:57:56.035Z,96938.14
2019-01-26T22:00:25.221Z,96932.02
2019-01-26T22:02:51.915Z,96932.91
2019-01-26T22:05:18.553Z,96928.34
2019-01-26T22:07:46.247Z,96928.20
2019-01-26T22:10:15.641Z,96922.19
2019-01-26T22:12:42.250Z,96928.57
2019-01-26T22:15:10.374Z,96926.34
2019-01-26T22:17:37.250Z,96923.23
2019-01-26T22:20:06.576Z,96920.23
2019-01-26T22:22:33.179Z,96918.48
2019-01-26T22:24:59.653Z,96911.63
2019-01-26T22:27:26.228Z,96914.22
2019-01-26T22:29:53.131Z,96907.14
2019-01-26T22:32:20.028Z,96898.45
2019-01-26T22:34:46.682Z,96897.64
2019-01-26T22:37:13.514Z,96896.05
2019-01-26T22:39:40.033Z,96885.63
2019-01-26T22:42:06.712Z,96875.95
2019-01-26T22:44:33.303Z,96866.48
2019-01-26T22:47:02.143Z,96874.80
2019-01-26T22:49:28.682Z,96869.90
2019-01-26T22:51:56.325Z,96870.31
2019-01-26T22:54:22.940Z,96873.23
2019-01-26T22:56:49.453Z,96869.34
2019-01-26T22:59:20.110Z,96860.69
2019-01-26T23:01:47.162Z,96865.33
2019-01-26T23:04:29.283Z,96860.08
2019-01-26T23:07:31.608Z,96856.72
2019-01-26T23:10:45.389Z,96844.75
2019-01-26T23:13:17.157Z,96837.09
2019-01-26T23:16:33.994Z,96836.88
2019-01-26T23:19:12.171Z,96834.28
2019-01-26T23:22:08.714Z,96830.76
2019-01-26T23:25:03.899Z,96834.65
2019-01-26T23:27:46.941Z,96816.81
2019-01-26T23:30:45.213Z,96825.08
2019-01-26T23:33:12.046Z,96812.39
2019-01-26T23:35:38.738Z,96805.20
2019-01-26T23:38:05.493Z,96791.77
2019-01-26T23:40:32.034Z,96787.83
2019-01-26T23:42:58.572Z,96781.34
2019-01-26T23:45:27.264Z,96780.66
2019-01-26T23:47:54.277Z,96775.59
2019-01-26T23:50:20.727Z,96775.72
2019-01-26T23:52:47.542Z,96770.36
2019-01-26T23:55:14.236Z,96774.62
2019-01-26T23:57:41.019Z,96768.66
